createdAt,value
2018-08-25T00:00:46.642Z,0.00
2018-08-25T00:01:46.697Z,0.00
2018-08-25T00:02:46.766Z,0.00
2018-08-25T00:03:46.783Z,0.00
2018-08-25T00:04:46.842Z,0.00
2018-08-25T00:05:47.151Z,0.00
2018-08-25T00:06:46.960Z,0.00
2018-08-25T00:07:46.995Z,0.00
2018-08-25T00:08:47.020Z,0.00
2018-08-25T00:09:47.057Z,0.00
2018-08-25T00:10:47.112Z,0.00
2018-08-25T00:11:47.164Z,0.00
2018-08-25T00:12:47.197Z,0.00
2018-08-25T00:13:47.261Z,0.00
2018-08-25T00:14:47.843Z,0.00
2018-08-25T00:15:47.365Z,0.00
2018-08-25T00:16:47.388Z,0.00
2018-08-25T00:17:47.444Z,0.00
2018-08-25T00:18:47.479Z,0.00
2018-08-25T00:19:47.516Z,0.00
2018-08-25T00:20:48.092Z,0.00
2018-08-25T00:21:47.626Z,0.00
2018-08-25T00:22:47.958Z,0.00
2018-08-25T00:23:47.697Z,0.00
2018-08-25T00:24:47.769Z,0.00
2018-08-25T00:25:47.817Z,0.00
2018-08-25T00:26:48.056Z,0.00
2018-08-25T00:27:47.902Z,0.00
2018-08-25T00:28:48.266Z,0.00
2018-08-25T00:29:48.035Z,0.00
2018-08-25T00:30:48.040Z,0.00
2018-08-25T00:31:48.077Z,0.00
2018-08-25T00:32:48.164Z,0.00
2018-08-25T00:33:48.490Z,0.00
2018-08-25T00:34:48.524Z,0.00
2018-08-25T00:35:48.277Z,0.00
2018-08-25T00:36:48.327Z,0.00
2018-08-25T00:37:48.372Z,0.00
2018-08-25T00:38:48.406Z,0.00
2018-08-25T00:39:49.021Z,0.00
2018-08-25T00:40:48.499Z,0.00
2018-08-25T00:41:48.562Z,0.00
2018-08-25T00:42:48.627Z,0.00
2018-08-25T00:43:48.658Z,0.00
2018-08-25T00:44:49.441Z,0.00
2018-08-25T00:45:48.716Z,0.00
2018-08-25T00:46:48.789Z,0.00
2018-08-25T00:47:48.936Z,0.00
2018-08-25T00:48:48.885Z,0.00
2018-08-25T00:49:48.918Z,0.00
2018-08-25T00:50:49.545Z,0.00
2018-08-25T00:51:49.000Z,0.00
2018-08-25T00:52:49.048Z,0.00
2018-08-25T00:53:49.124Z,0.00
2018-08-25T00:54:49.182Z,0.00
2018-08-25T00:55:49.496Z,0.00
2018-08-25T00:56:49.299Z,0.00
2018-08-25T00:57:49.305Z,0.00
2018-08-25T00:58:49.387Z,0.00
2018-08-25T00:59:49.392Z,0.00
2018-08-25T01:00:49.443Z,0.00
2018-08-25T01:01:49.492Z,0.00
2018-08-25T01:02:49.839Z,0.00
2018-08-25T01:03:49.592Z,0.00
2018-08-25T01:04:49.605Z,0.00
2018-08-25T01:05:49.675Z,0.00
2018-08-25T01:06:49.737Z,0.00
2018-08-25T01:07:49.773Z,0.00
2018-08-25T01:08:49.808Z,0.00
2018-08-25T01:09:49.894Z,0.00
2018-08-25T01:10:49.913Z,0.00
2018-08-25T01:11:49.957Z,0.00
2018-08-25T01:12:49.984Z,0.00
2018-08-25T01:13:50.056Z,0.00
2018-08-25T01:14:50.125Z,0.00
2018-08-25T01:15:50.119Z,0.00
2018-08-25T01:16:50.193Z,0.00
2018-08-25T01:17:50.227Z,0.00
2018-08-25T01:18:50.514Z,0.00
2018-08-25T01:19:50.340Z,0.00
2018-08-25T01:20:50.378Z,0.00
2018-08-25T01:21:50.421Z,0.00
2018-08-25T01:22:50.458Z,0.00
2018-08-25T01:23:50.522Z,0.00
2018-08-25T01:24:50.559Z,0.00
2018-08-25T01:25:50.607Z,0.00
2018-08-25T01:26:50.667Z,0.00
2018-08-25T01:27:50.697Z,0.00
2018-08-25T01:28:50.780Z,0.00
2018-08-25T01:29:51.052Z,0.00
2018-08-25T01:30:50.827Z,0.00
2018-08-25T01:31:50.891Z,0.00
2018-08-25T01:32:50.946Z,0.00
2018-08-25T01:33:50.992Z,0.00
2018-08-25T01:34:51.049Z,0.00
2018-08-25T01:35:51.063Z,0.00
2018-08-25T01:36:51.152Z,0.00
2018-08-25T01:37:51.175Z,0.00
2018-08-25T01:38:51.229Z,0.00
2018-08-25T01:39:51.284Z,0.00
2018-08-25T01:40:51.321Z,0.00
2018-08-25T01:41:51.397Z,0.00
2018-08-25T01:42:51.399Z,0.00
2018-08-25T01:43:51.433Z,0.00
2018-08-25T01:44:51.513Z,0.00
2018-08-25T01:45:51.541Z,0.00
2018-08-25T01:46:51.851Z,0.00
2018-08-25T01:47:51.622Z,0.00
2018-08-25T01:48:51.690Z,0.00
2018-08-25T01:49:51.771Z,0.00
2018-08-25T01:50:51.762Z,0.00
2018-08-25T01:51:51.818Z,0.00
2018-08-25T01:52:52.163Z,0.00
2018-08-25T01:53:51.903Z,0.00
2018-08-25T01:54:51.958Z,0.00
2018-08-25T01:55:52.031Z,0.00
2018-08-25T01:56:52.058Z,0.00
2018-08-25T01:57:52.104Z,0.00
2018-08-25T01:58:52.382Z,0.00
2018-08-25T01:59:52.172Z,0.00
2018-08-25T02:00:52.237Z,0.00
2018-08-25T02:01:52.321Z,0.00
2018-08-25T02:02:52.395Z,0.00
2018-08-25T02:03:52.429Z,0.00
2018-08-25T02:04:52.412Z,0.00
2018-08-25T02:05:52.463Z,0.00
2018-08-25T02:06:52.548Z,0.00
2018-08-25T02:07:52.611Z,0.00
2018-08-25T02:08:52.598Z,0.00
2018-08-25T02:09:52.709Z,0.00
2018-08-25T02:10:52.780Z,0.00
2018-08-25T02:11:52.757Z,0.00
2018-08-25T02:12:52.825Z,0.00
2018-08-25T02:13:52.831Z,0.00
2018-08-25T02:14:52.921Z,0.00
2018-08-25T02:15:52.911Z,0.00
2018-08-25T02:16:53.346Z,0.00
2018-08-25T02:17:53.016Z,0.00
2018-08-25T02:18:53.064Z,0.00
2018-08-25T02:19:53.097Z,0.00
2018-08-25T02:20:53.145Z,0.00
2018-08-25T02:21:53.264Z,0.00
2018-08-25T02:22:53.291Z,0.00
2018-08-25T02:23:53.588Z,0.00
2018-08-25T02:24:53.355Z,0.00
2018-08-25T02:25:53.442Z,0.00
2018-08-25T02:26:53.487Z,0.00
2018-08-25T02:27:53.527Z,0.00
2018-08-25T02:28:53.569Z,0.00
2018-08-25T02:29:53.885Z,0.00
2018-08-25T02:30:53.657Z,0.00
2018-08-25T02:31:53.722Z,0.00
2018-08-25T02:32:53.754Z,0.00
2018-08-25T02:33:53.735Z,0.00
2018-08-25T02:34:53.844Z,0.00
2018-08-25T02:35:54.204Z,0.00
2018-08-25T02:36:53.908Z,0.00
2018-08-25T02:37:53.985Z,0.00
2018-08-25T02:38:53.967Z,0.00
2018-08-25T02:39:54.020Z,0.00
2018-08-25T02:40:54.163Z,0.00
2018-08-25T02:41:54.460Z,0.00
2018-08-25T02:42:54.196Z,0.00
2018-08-25T02:43:54.193Z,0.00
2018-08-25T02:44:54.290Z,0.00
2018-08-25T02:45:54.368Z,0.00
2018-08-25T02:46:54.333Z,0.00
2018-08-25T02:47:54.526Z,0.00
2018-08-25T02:48:54.452Z,0.00
2018-08-25T02:49:54.524Z,0.00
2018-08-25T02:50:54.576Z,0.00
2018-08-25T02:51:54.609Z,0.00
2018-08-25T02:52:54.623Z,0.00
2018-08-25T02:53:54.694Z,0.00
2018-08-25T02:54:54.771Z,0.00
2018-08-25T02:55:54.773Z,0.00
2018-08-25T02:56:54.813Z,0.00
2018-08-25T02:57:55.307Z,0.00
2018-08-25T03:31:56.432Z,0.00
2018-08-25T03:32:56.461Z,0.00
2018-08-25T03:33:56.516Z,0.00
2018-08-25T03:34:56.576Z,0.00
2018-08-25T03:35:56.624Z,0.00
2018-08-25T03:36:57.083Z,0.00
2018-08-25T03:37:56.779Z,0.00
2018-08-25T03:38:56.825Z,0.00
2018-08-25T03:39:56.794Z,0.00
2018-08-25T03:40:56.846Z,0.00
2018-08-25T03:41:56.961Z,0.00
2018-08-25T03:42:56.975Z,0.00
2018-08-25T03:43:56.982Z,0.00
2018-08-25T03:44:57.098Z,0.00
2018-08-25T03:45:57.133Z,0.00
2018-08-25T03:46:57.431Z,0.00
2018-08-25T03:47:57.282Z,0.00
2018-08-25T03:48:57.248Z,0.00
2018-08-25T03:49:57.324Z,0.00
2018-08-25T03:50:57.318Z,0.00
2018-08-25T03:51:57.383Z,0.00
2018-08-25T03:52:57.407Z,0.00
2018-08-25T03:53:57.756Z,0.00
2018-08-25T03:54:57.484Z,0.00
2018-08-25T03:55:57.541Z,0.00
2018-08-25T03:56:57.575Z,0.00
2018-08-25T03:57:57.642Z,0.00
2018-08-25T03:58:57.666Z,0.00
2018-08-25T03:59:57.720Z,0.00
2018-08-25T04:00:57.754Z,0.00
2018-08-25T04:01:57.798Z,0.00
2018-08-25T04:02:57.867Z,0.00
2018-08-25T04:03:57.894Z,0.00
2018-08-25T04:04:58.003Z,0.00
2018-08-25T04:05:57.980Z,0.00
2018-08-25T04:06:58.045Z,0.00
2018-08-25T04:07:58.077Z,0.00
2018-08-25T04:08:58.148Z,0.00
2018-08-25T04:09:58.402Z,0.00
2018-08-25T04:10:58.230Z,0.00
2018-08-25T04:11:58.276Z,0.00
2018-08-25T04:12:58.309Z,0.00
2018-08-25T04:13:58.354Z,0.00
2018-08-25T04:14:58.430Z,0.00
2018-08-25T04:15:58.748Z,0.00
2018-08-25T04:16:58.535Z,0.00
2018-08-25T04:17:58.917Z,0.00
2018-08-25T04:18:58.572Z,0.00
2018-08-25T04:19:58.629Z,0.00
2018-08-25T04:20:58.662Z,0.00
2018-08-25T04:21:59.025Z,0.00
2018-08-25T04:22:58.803Z,0.00
2018-08-25T04:23:58.797Z,0.00
2018-08-25T04:24:58.840Z,0.00
2018-08-25T04:26:00.136Z,0.00
2018-08-25T04:26:58.978Z,0.00
2018-08-25T04:27:58.988Z,0.00
2018-08-25T04:28:59.045Z,0.00
2018-08-25T04:29:59.046Z,0.00
2018-08-25T04:30:59.129Z,0.00
2018-08-25T04:31:59.444Z,0.00
2018-08-25T04:32:59.196Z,0.00
2018-08-25T04:33:59.225Z,0.00
2018-08-25T04:34:59.293Z,0.00
2018-08-25T04:35:59.321Z,0.00
2018-08-25T04:36:59.361Z,0.00
2018-08-25T04:37:59.415Z,0.00
2018-08-25T04:38:59.482Z,0.00
2018-08-25T04:39:59.523Z,0.00
2018-08-25T04:40:59.558Z,0.00
2018-08-25T04:41:59.595Z,0.00
2018-08-25T04:42:59.953Z,0.00
2018-08-25T04:43:59.697Z,0.00
2018-08-25T04:44:59.772Z,0.00
2018-08-25T04:45:59.814Z,0.00
2018-08-25T04:46:59.802Z,0.00
2018-08-25T04:47:59.881Z,0.00
2018-08-25T04:48:59.917Z,0.00
2018-08-25T04:49:59.933Z,0.00
2018-08-25T04:50:59.998Z,0.00
2018-08-25T04:52:00.047Z,0.00
2018-08-25T04:53:00.079Z,0.00
2018-08-25T04:54:00.446Z,0.00
2018-08-25T04:55:00.180Z,0.00
2018-08-25T04:56:00.233Z,0.00
2018-08-25T04:57:00.269Z,0.00
2018-08-25T04:58:00.313Z,0.00
2018-08-25T04:59:00.373Z,0.00
2018-08-25T05:00:00.391Z,0.00
2018-08-25T05:01:00.443Z,0.00
2018-08-25T05:02:00.519Z,0.00
2018-08-25T05:03:00.535Z,0.00
2018-08-25T05:04:00.585Z,0.00
2018-08-25T05:05:00.627Z,0.00
2018-08-25T05:06:00.637Z,0.00
2018-08-25T05:07:00.745Z,0.00
2018-08-25T05:08:00.769Z,0.00
2018-08-25T05:09:00.791Z,0.00
2018-08-25T05:10:00.841Z,0.00
2018-08-25T05:11:00.886Z,0.00
2018-08-25T05:12:00.930Z,0.00
2018-08-25T05:13:00.968Z,0.00
2018-08-25T05:14:01.060Z,0.00
2018-08-25T05:15:01.354Z,0.00
2018-08-25T05:16:01.110Z,0.00
2018-08-25T05:17:01.129Z,0.00
2018-08-25T05:18:01.196Z,0.00
2018-08-25T05:19:01.213Z,0.00
2018-08-25T05:20:01.269Z,0.00
2018-08-25T05:21:01.622Z,0.00
2018-08-25T05:22:01.423Z,0.00
2018-08-25T05:23:01.413Z,0.00
2018-08-25T05:24:01.450Z,0.00
2018-08-25T05:25:01.471Z,0.00
2018-08-25T05:26:01.784Z,0.00
2018-08-25T05:27:01.587Z,0.00
2018-08-25T05:28:01.623Z,0.00
2018-08-25T05:29:01.665Z,0.00
2018-08-25T05:30:01.726Z,0.00
2018-08-25T05:31:01.755Z,0.00
2018-08-25T05:32:01.808Z,0.00
2018-08-25T05:33:02.151Z,0.00
2018-08-25T05:34:01.915Z,0.00
2018-08-25T05:35:01.934Z,0.00
2018-08-25T05:36:01.967Z,0.00
2018-08-25T05:37:01.992Z,0.00
2018-08-25T05:38:02.057Z,0.00
2018-08-25T05:39:02.094Z,0.00
2018-08-25T05:40:02.135Z,0.00
2018-08-25T05:41:02.189Z,0.00
2018-08-25T05:42:02.240Z,0.00
2018-08-25T05:43:02.527Z,0.00
2018-08-25T05:44:02.348Z,0.00
2018-08-25T05:45:02.340Z,0.00
2018-08-25T05:46:02.410Z,0.00
2018-08-25T05:47:02.431Z,0.00
2018-08-25T05:48:02.460Z,0.00
2018-08-25T05:49:02.528Z,0.00
2018-08-25T05:50:02.581Z,0.00
2018-08-25T05:51:02.691Z,0.00
2018-08-25T05:52:02.707Z,0.00
2018-08-25T05:53:02.941Z,0.00
2018-08-25T05:54:02.805Z,0.00
2018-08-25T05:55:02.769Z,0.00
2018-08-25T05:56:02.827Z,0.00
2018-08-25T05:57:02.891Z,0.00
2018-08-25T05:58:02.954Z,0.00
2018-08-25T05:59:02.995Z,0.00
2018-08-25T06:00:03.016Z,0.00
2018-08-25T06:01:03.085Z,0.00
2018-08-25T06:02:03.083Z,0.00
2018-08-25T06:03:03.139Z,0.00
2018-08-25T06:04:03.463Z,0.00
2018-08-25T06:05:03.255Z,0.00
2018-08-25T06:06:03.259Z,0.00
2018-08-25T06:07:03.318Z,0.00
2018-08-25T06:08:03.353Z,0.00
2018-08-25T06:09:03.378Z,0.00
2018-08-25T06:10:03.443Z,0.00
2018-08-25T06:11:03.495Z,0.00
2018-08-25T06:12:03.510Z,0.00
2018-08-25T06:13:03.582Z,0.00
2018-08-25T06:14:03.584Z,0.00
2018-08-25T06:15:03.938Z,0.00
2018-08-25T06:16:03.705Z,0.00
2018-08-25T06:17:03.708Z,0.00
2018-08-25T06:18:03.753Z,0.00
2018-08-25T06:19:03.867Z,0.00
2018-08-25T06:20:03.860Z,0.00
2018-08-25T06:21:03.893Z,0.00
2018-08-25T06:22:03.968Z,0.00
2018-08-25T06:23:03.995Z,0.00
2018-08-25T06:24:04.086Z,0.00
2018-08-25T06:25:04.100Z,0.00
2018-08-25T06:26:04.379Z,0.00
2018-08-25T06:27:04.169Z,0.00
2018-08-25T06:28:04.196Z,0.00
2018-08-25T06:29:04.296Z,0.00
2018-08-25T06:30:04.325Z,0.00
2018-08-25T06:31:04.342Z,0.00
2018-08-25T06:32:04.612Z,0.00
2018-08-25T06:33:04.404Z,0.00
2018-08-25T06:34:04.503Z,0.00
2018-08-25T06:35:04.496Z,0.00
2018-08-25T06:36:04.604Z,0.00
2018-08-25T06:37:04.936Z,0.00
2018-08-25T06:38:04.622Z,0.00
2018-08-25T06:39:04.702Z,0.00
2018-08-25T06:40:04.721Z,0.00
2018-08-25T06:41:04.776Z,0.00
2018-08-25T06:42:04.818Z,0.00
2018-08-25T06:43:05.090Z,0.00
2018-08-25T06:44:04.889Z,0.00
2018-08-25T06:45:04.942Z,0.00
2018-08-25T06:46:05.012Z,0.00
2018-08-25T06:47:04.994Z,0.00
2018-08-25T06:48:05.046Z,0.00
2018-08-25T06:49:05.398Z,0.00
2018-08-25T06:50:05.126Z,0.00
2018-08-25T06:51:05.187Z,0.00
2018-08-25T06:52:05.226Z,0.00
2018-08-25T06:53:05.311Z,0.00
2018-08-25T06:54:05.313Z,0.00
2018-08-25T06:55:05.355Z,0.00
2018-08-25T06:56:05.376Z,0.00
2018-08-25T06:57:05.415Z,0.00
2018-08-25T06:58:05.496Z,0.00
2018-08-25T06:59:05.822Z,0.00
2018-08-25T07:00:05.573Z,0.00
2018-08-25T07:01:05.603Z,0.00
2018-08-25T07:02:05.638Z,0.00
2018-08-25T07:03:05.717Z,0.00
2018-08-25T07:04:05.739Z,0.00
2018-08-25T07:05:05.786Z,0.00
2018-08-25T07:06:05.919Z,0.00
2018-08-25T07:07:05.903Z,0.00
2018-08-25T07:08:05.888Z,0.00
2018-08-25T07:09:06.290Z,0.00
2018-08-25T07:10:05.974Z,0.00
2018-08-25T07:11:06.040Z,0.00
2018-08-25T07:12:06.125Z,0.00
2018-08-25T07:13:06.117Z,0.00
2018-08-25T07:14:06.179Z,0.00
2018-08-25T07:15:06.241Z,0.00
2018-08-25T07:16:06.258Z,0.00
2018-08-25T07:17:06.298Z,0.00
2018-08-25T07:18:06.329Z,0.00
2018-08-25T07:19:06.750Z,0.00
2018-08-25T07:20:06.420Z,0.00
2018-08-25T07:21:06.459Z,0.00
2018-08-25T07:22:06.519Z,0.00
2018-08-25T07:23:06.589Z,0.00
2018-08-25T07:24:06.844Z,0.00
2018-08-25T07:25:06.622Z,0.00
2018-08-25T07:26:06.678Z,0.00
2018-08-25T07:27:06.731Z,0.00
2018-08-25T07:28:06.740Z,0.00
2018-08-25T07:29:06.773Z,0.00
2018-08-25T07:30:07.145Z,0.00
2018-08-25T07:31:06.859Z,0.00
2018-08-25T07:32:06.943Z,0.00
2018-08-25T07:33:06.980Z,0.00
2018-08-25T07:34:06.998Z,0.00
2018-08-25T07:35:07.062Z,0.00
2018-08-25T07:36:07.349Z,0.00
2018-08-25T07:37:07.135Z,0.00
2018-08-25T07:38:07.238Z,0.00
2018-08-25T07:39:07.220Z,0.00
2018-08-25T07:40:07.243Z,0.00
2018-08-25T07:41:07.291Z,0.00
2018-08-25T07:42:07.646Z,0.00
2018-08-25T07:43:07.388Z,0.00
2018-08-25T07:44:07.438Z,0.00
2018-08-25T07:45:07.500Z,0.00
2018-08-25T07:46:07.528Z,0.00
2018-08-25T07:47:07.860Z,0.00
2018-08-25T07:48:07.599Z,0.00
2018-08-25T07:49:07.621Z,0.00
2018-08-25T07:50:07.673Z,0.00
2018-08-25T07:51:07.755Z,0.00
2018-08-25T07:52:07.808Z,0.00
2018-08-25T07:53:08.090Z,0.00
2018-08-25T07:54:07.893Z,0.00
2018-08-25T07:55:07.899Z,0.00
2018-08-25T07:56:07.930Z,0.00
2018-08-25T07:57:07.974Z,0.00
2018-08-25T07:58:08.014Z,0.00
2018-08-25T07:59:08.109Z,0.00
2018-08-25T08:00:08.096Z,0.00
2018-08-25T08:01:08.154Z,0.00
2018-08-25T08:02:08.185Z,0.00
2018-08-25T08:03:08.539Z,0.00
2018-08-25T08:04:08.277Z,0.00
2018-08-25T08:05:08.354Z,0.00
2018-08-25T08:06:08.393Z,0.00
2018-08-25T08:07:08.456Z,0.00
2018-08-25T08:08:08.592Z,0.00
2018-08-25T08:09:08.529Z,0.00
2018-08-25T08:10:08.574Z,0.00
2018-08-25T08:11:08.570Z,0.00
2018-08-25T08:12:08.703Z,0.00
2018-08-25T08:13:08.961Z,0.00
2018-08-25T08:14:09.009Z,0.00
2018-08-25T08:15:08.740Z,0.00
2018-08-25T08:16:08.795Z,0.00
2018-08-25T08:17:08.827Z,0.00
2018-08-25T08:18:08.888Z,0.00
2018-08-25T08:19:08.908Z,0.00
2018-08-25T08:20:09.207Z,0.00
2018-08-25T08:21:09.041Z,0.00
2018-08-25T08:22:09.030Z,0.00
2018-08-25T08:23:09.070Z,0.00
2018-08-25T08:24:09.122Z,0.00
2018-08-25T08:25:09.160Z,0.00
2018-08-25T08:26:09.460Z,0.00
2018-08-25T08:27:09.252Z,0.00
2018-08-25T08:28:09.289Z,0.00
2018-08-25T08:29:09.336Z,0.00
2018-08-25T08:30:09.374Z,0.00
2018-08-25T08:31:09.406Z,0.00
2018-08-25T08:32:09.466Z,0.00
2018-08-25T08:33:09.556Z,0.00
2018-08-25T08:34:09.530Z,0.00
2018-08-25T08:35:09.596Z,0.00
2018-08-25T08:36:09.880Z,0.00
2018-08-25T08:37:09.671Z,0.00
2018-08-25T08:38:09.758Z,0.00
2018-08-25T08:39:09.782Z,0.00
2018-08-25T08:40:09.782Z,0.00
2018-08-25T08:41:09.822Z,0.00
2018-08-25T08:42:09.928Z,0.00
2018-08-25T08:43:10.220Z,0.00
2018-08-25T08:44:09.956Z,0.00
2018-08-25T08:45:10.010Z,0.00
2018-08-25T08:46:10.053Z,0.00
2018-08-25T08:47:10.092Z,0.00
2018-08-25T08:48:10.135Z,0.00
2018-08-25T08:49:10.151Z,0.00
2018-08-25T08:50:10.221Z,0.00
2018-08-25T08:51:10.231Z,0.00
2018-08-25T08:52:10.296Z,0.00
2018-08-25T08:53:10.351Z,0.00
2018-08-25T08:54:10.682Z,0.00
2018-08-25T08:55:10.443Z,0.00
2018-08-25T08:56:10.479Z,0.00
2018-08-25T08:57:10.529Z,0.00
2018-08-25T08:58:10.604Z,0.00
2018-08-25T08:59:10.582Z,0.00
2018-08-25T09:00:10.946Z,0.00
2018-08-25T09:01:10.676Z,0.00
2018-08-25T09:02:10.754Z,0.00
2018-08-25T09:03:10.788Z,0.00
2018-08-25T09:04:10.806Z,0.00
2018-08-25T09:05:11.076Z,4.00
2018-08-25T09:06:10.871Z,0.00
2018-08-25T09:07:10.925Z,4.00
2018-08-25T09:08:10.952Z,4.00
2018-08-25T09:09:11.011Z,8.00
2018-08-25T09:10:11.032Z,12.00
2018-08-25T09:11:11.382Z,12.00
2018-08-25T09:12:11.175Z,20.00
2018-08-25T09:13:11.224Z,20.00
2018-08-25T09:14:11.257Z,28.00
2018-08-25T09:15:11.259Z,32.00
2018-08-25T09:16:11.293Z,40.00
2018-08-25T09:17:11.449Z,52.00
2018-08-25T09:18:11.428Z,68.00
2018-08-25T09:19:11.428Z,84.00
2018-08-25T09:20:11.483Z,104.00
2018-08-25T09:21:11.502Z,124.00
2018-08-25T09:22:11.546Z,140.00
2018-08-25T09:23:11.692Z,164.00
2018-08-25T09:24:11.688Z,188.00
2018-08-25T09:25:11.671Z,208.00
2018-08-25T09:26:11.716Z,236.00
2018-08-25T09:27:11.802Z,264.00
2018-08-25T09:28:11.810Z,300.00
2018-08-25T09:29:11.950Z,336.00
2018-08-25T09:30:11.873Z,368.00
2018-08-25T09:31:11.928Z,396.00
2018-08-25T09:32:11.993Z,420.00
2018-08-25T09:33:12.010Z,448.00
2018-08-25T09:34:12.057Z,480.00
2018-08-25T09:35:12.376Z,524.00
2018-08-25T09:36:12.225Z,588.00
2018-08-25T09:37:12.179Z,652.00
2018-08-25T09:38:12.241Z,736.00
2018-08-25T09:39:12.289Z,848.00
2018-08-25T09:40:12.363Z,972.00
2018-08-25T09:41:12.612Z,1112.00
2018-08-25T09:42:12.448Z,1260.00
2018-08-25T09:43:12.440Z,1408.00
2018-08-25T09:44:12.485Z,1552.00
2018-08-25T09:45:12.540Z,1696.00
2018-08-25T09:46:12.624Z,1844.00
2018-08-25T09:47:12.626Z,1984.00
2018-08-25T09:48:12.654Z,2120.00
2018-08-25T09:49:12.732Z,2216.00
2018-08-25T09:50:12.736Z,2276.00
2018-08-25T09:51:12.768Z,2304.00
2018-08-25T09:52:12.817Z,2284.00
2018-08-25T09:53:12.853Z,2228.00
2018-08-25T09:54:12.922Z,2164.00
2018-08-25T09:55:12.948Z,2104.00
2018-08-25T09:56:13.007Z,2068.00
2018-08-25T09:57:13.032Z,2064.00
2018-08-25T09:58:13.084Z,2088.00
2018-08-25T09:59:13.110Z,2112.00
2018-08-25T10:00:13.143Z,2120.00
2018-08-25T10:01:13.191Z,2084.00
2018-08-25T10:02:13.256Z,2016.00
2018-08-25T10:03:13.579Z,1948.00
2018-08-25T10:04:13.321Z,1892.00
2018-08-25T10:05:13.390Z,1840.00
2018-08-25T10:06:13.419Z,1796.00
2018-08-25T10:07:13.454Z,1772.00
2018-08-25T10:08:13.545Z,1784.00
2018-08-25T10:09:13.833Z,1840.00
2018-08-25T10:10:13.583Z,1928.00
2018-08-25T10:11:13.645Z,2044.00
2018-08-25T10:12:13.685Z,2164.00
2018-08-25T10:13:13.722Z,2276.00
2018-08-25T10:14:13.781Z,2396.00
2018-08-25T10:15:13.804Z,2524.00
2018-08-25T10:16:13.865Z,2660.00
2018-08-25T10:17:13.906Z,2776.00
2018-08-25T10:18:13.939Z,2856.00
2018-08-25T10:19:13.958Z,2888.00
2018-08-25T10:20:14.354Z,2888.00
2018-08-25T10:21:14.060Z,2872.00
2018-08-25T10:22:14.104Z,2868.00
2018-08-25T10:23:14.155Z,2916.00
2018-08-25T10:24:14.169Z,3020.00
2018-08-25T10:25:14.235Z,3176.00
2018-08-25T10:26:14.257Z,3344.00
2018-08-25T10:27:14.618Z,3524.00
2018-08-25T10:28:14.399Z,3684.00
2018-08-25T10:29:14.411Z,3880.00
2018-08-25T10:30:14.456Z,4160.00
2018-08-25T10:31:14.504Z,4524.00
2018-08-25T10:32:14.766Z,4956.00
2018-08-25T10:33:14.570Z,5428.00
2018-08-25T10:34:14.638Z,5892.00
2018-08-25T10:35:14.637Z,6320.00
2018-08-25T10:36:14.688Z,6688.00
2018-08-25T10:37:14.740Z,6972.00
2018-08-25T10:38:14.762Z,7192.00
2018-08-25T10:39:14.849Z,7376.00
2018-08-25T10:40:14.879Z,7560.00
2018-08-25T10:41:14.907Z,7756.00
2018-08-25T10:42:15.044Z,7964.00
2018-08-25T10:43:15.014Z,8172.00
2018-08-25T10:44:15.042Z,8384.00
2018-08-25T10:45:15.093Z,8636.00
2018-08-25T10:46:15.143Z,8968.00
2018-08-25T10:47:15.169Z,9380.00
2018-08-25T10:48:15.244Z,9896.00
2018-08-25T10:49:15.572Z,10504.00
2018-08-25T10:50:15.287Z,11088.00
2018-08-25T10:51:15.405Z,11492.00
2018-08-25T10:52:15.397Z,11744.00
2018-08-25T10:53:15.449Z,11884.00
2018-08-25T10:54:15.466Z,11988.00
2018-08-25T10:55:15.539Z,11956.00
2018-08-25T10:56:15.567Z,12080.00
2018-08-25T10:57:15.634Z,12196.00
2018-08-25T10:58:15.680Z,12188.00
2018-08-25T10:59:15.722Z,12160.00
2018-08-25T11:00:15.858Z,12052.00
2018-08-25T11:01:15.968Z,11864.00
2018-08-25T11:02:16.078Z,11652.00
2018-08-25T11:03:15.879Z,11460.00
2018-08-25T11:04:15.927Z,11264.00
2018-08-25T11:05:15.972Z,11096.00
2018-08-25T11:06:16.016Z,10920.00
2018-08-25T11:07:16.067Z,10752.00
2018-08-25T11:08:16.157Z,10728.00
2018-08-25T11:09:16.161Z,10832.00
2018-08-25T11:10:16.185Z,11084.00
2018-08-25T11:11:16.263Z,11448.00
2018-08-25T11:12:16.332Z,11908.00
2018-08-25T11:13:16.331Z,12352.00
2018-08-25T11:14:16.383Z,12696.00
2018-08-25T11:15:16.432Z,12912.00
2018-08-25T11:16:16.483Z,12988.00
2018-08-25T11:17:16.516Z,12892.00
2018-08-25T11:18:16.571Z,12740.00
2018-08-25T11:19:16.603Z,12600.00
2018-08-25T11:20:16.884Z,12456.00
2018-08-25T11:21:16.690Z,12328.00
2018-08-25T11:22:16.779Z,12152.00
2018-08-25T11:23:16.823Z,11936.00
2018-08-25T11:24:16.811Z,11800.00
2018-08-25T11:25:16.887Z,11732.00
2018-08-25T11:26:16.928Z,11796.00
2018-08-25T11:27:16.972Z,11940.00
2018-08-25T11:28:17.010Z,12192.00
2018-08-25T11:29:17.130Z,12484.00
2018-08-25T11:30:17.119Z,12740.00
2018-08-25T11:31:17.159Z,12920.00
2018-08-25T11:32:17.215Z,12988.00
2018-08-25T11:33:17.248Z,12964.00
2018-08-25T11:34:17.302Z,12916.00
2018-08-25T11:35:17.331Z,12908.00
2018-08-25T11:36:17.382Z,12844.00
2018-08-25T11:37:17.493Z,12692.00
2018-08-25T11:38:17.469Z,12496.00
2018-08-25T11:39:17.497Z,12244.00
2018-08-25T11:40:17.585Z,11996.00
2018-08-25T11:41:17.623Z,11828.00
2018-08-25T11:42:17.635Z,11712.00
2018-08-25T11:43:17.751Z,11592.00
2018-08-25T11:44:17.750Z,11452.00
2018-08-25T11:45:17.800Z,11324.00
2018-08-25T11:46:17.827Z,11236.00
2018-08-25T11:47:18.138Z,11188.00
2018-08-25T11:48:17.921Z,11216.00
2018-08-25T11:49:18.000Z,11264.00
2018-08-25T11:50:18.036Z,11340.00
2018-08-25T11:51:18.057Z,11468.00
2018-08-25T11:52:18.099Z,11656.00
2018-08-25T11:53:18.173Z,11860.00
2018-08-25T11:54:18.213Z,12080.00
2018-08-25T11:55:18.268Z,12320.00
2018-08-25T11:56:18.312Z,12600.00
2018-08-25T11:57:18.370Z,12980.00
2018-08-25T11:58:18.413Z,13400.00
2018-08-25T11:59:18.431Z,13728.00
2018-08-25T12:00:18.487Z,13944.00
2018-08-25T12:01:18.523Z,14128.00
2018-08-25T12:02:18.599Z,14348.00
2018-08-25T12:03:18.643Z,14532.00
2018-08-25T12:04:18.686Z,14672.00
2018-08-25T12:05:18.709Z,14792.00
2018-08-25T12:06:18.774Z,14896.00
2018-08-25T12:07:18.809Z,15004.00
2018-08-25T12:08:18.880Z,15116.00
2018-08-25T12:09:18.922Z,15320.00
2018-08-25T12:10:18.987Z,15548.00
2018-08-25T12:11:18.993Z,15932.00
2018-08-25T12:12:19.030Z,16416.00
2018-08-25T12:13:19.084Z,17216.00
2018-08-25T12:14:19.128Z,18016.00
2018-08-25T12:15:19.183Z,18848.00
2018-08-25T12:16:19.278Z,19648.00
2018-08-25T12:17:19.276Z,20448.00
2018-08-25T12:18:19.329Z,21088.00
2018-08-25T12:19:19.374Z,21600.00
2018-08-25T12:20:19.401Z,21952.00
2018-08-25T12:21:19.454Z,22144.00
2018-08-25T12:22:19.505Z,22336.00
2018-08-25T12:23:19.550Z,22656.00
2018-08-25T12:24:19.604Z,23040.00
2018-08-25T12:25:19.651Z,23488.00
2018-08-25T12:26:19.702Z,24064.00
2018-08-25T12:27:19.733Z,24864.00
2018-08-25T12:28:19.790Z,25760.00
2018-08-25T12:29:19.829Z,26208.00
2018-08-25T12:30:19.896Z,26784.00
2018-08-25T12:31:19.918Z,27392.00
2018-08-25T12:32:19.976Z,27040.00
2018-08-25T12:33:20.032Z,25856.00
2018-08-25T12:34:20.091Z,26624.00
2018-08-25T12:35:20.116Z,25600.00
2018-08-25T12:36:20.176Z,25024.00
2018-08-25T12:37:20.228Z,25088.00
2018-08-25T12:38:20.305Z,25664.00
2018-08-25T12:39:20.330Z,26112.00
2018-08-25T12:40:20.345Z,27360.00
2018-08-25T12:41:20.413Z,27488.00
2018-08-25T12:42:20.444Z,29632.00
2018-08-25T12:43:20.816Z,28864.00
2018-08-25T12:44:20.553Z,27488.00
2018-08-25T12:45:20.595Z,26560.00
2018-08-25T12:46:20.657Z,26624.00
2018-08-25T12:47:20.689Z,27296.00
2018-08-25T12:48:20.780Z,27168.00
2018-08-25T12:49:20.793Z,27488.00
2018-08-25T12:50:20.829Z,27616.00
2018-08-25T12:51:20.892Z,27264.00
2018-08-25T12:52:20.928Z,26816.00
2018-08-25T12:53:20.985Z,26592.00
2018-08-25T12:54:21.035Z,26304.00
2018-08-25T12:55:21.152Z,26016.00
2018-08-25T12:56:21.181Z,25664.00
2018-08-25T12:57:21.187Z,25120.00
2018-08-25T12:58:21.219Z,24640.00
2018-08-25T12:59:21.299Z,24288.00
2018-08-25T13:00:21.668Z,24000.00
2018-08-25T13:01:21.383Z,23712.00
2018-08-25T13:02:21.427Z,23488.00
2018-08-25T13:03:21.455Z,23360.00
2018-08-25T13:04:21.517Z,23296.00
2018-08-25T13:05:21.579Z,23296.00
2018-08-25T13:06:21.627Z,23424.00
2018-08-25T13:07:21.730Z,23584.00
2018-08-25T13:08:21.727Z,23840.00
2018-08-25T13:09:21.792Z,24000.00
2018-08-25T13:10:21.813Z,24128.00
2018-08-25T13:11:21.866Z,24128.00
2018-08-25T13:12:21.903Z,23840.00
2018-08-25T13:13:21.987Z,23520.00
2018-08-25T13:14:22.005Z,23872.00
2018-08-25T13:15:22.038Z,24704.00
2018-08-25T13:16:22.121Z,25344.00
2018-08-25T13:17:22.152Z,25696.00
2018-08-25T13:18:22.509Z,26016.00
2018-08-25T13:19:22.280Z,26048.00
2018-08-25T13:20:22.302Z,26080.00
2018-08-25T13:21:22.333Z,26144.00
2018-08-25T13:22:22.392Z,26272.00
2018-08-25T13:23:22.470Z,26624.00